createdAt,value
2018-05-17T00:08:15.997Z,80.30
2018-05-17T00:10:43.630Z,80.20
2018-05-17T00:13:30.609Z,80.10
2018-05-17T00:15:58.196Z,80.20
2018-05-17T00:18:25.781Z,80.20
2018-05-17T00:20:53.418Z,80.10
2018-05-17T00:23:20.963Z,80.60
2018-05-17T00:25:48.609Z,80.50
2018-05-17T00:28:16.177Z,80.70
2018-05-17T00:30:43.732Z,80.60
2018-05-17T00:33:11.306Z,80.70
2018-05-17T00:35:39.065Z,80.60
2018-05-17T00:38:06.557Z,80.90
2018-05-17T00:40:34.073Z,80.70
2018-05-17T00:43:01.676Z,80.60
2018-05-17T00:45:29.258Z,80.70
2018-05-17T00:47:56.783Z,81.00
2018-05-17T00:50:24.487Z,80.70
2018-05-17T00:53:04.812Z,80.50
2018-05-17T00:55:32.366Z,80.40
2018-05-17T00:57:59.880Z,80.60
2018-05-17T01:00:28.258Z,80.70
2018-05-17T01:02:57.241Z,80.60
2018-05-17T01:05:25.625Z,81.00
2018-05-17T01:08:09.977Z,81.00
2018-05-17T01:10:37.646Z,80.70
2018-05-17T01:13:05.162Z,80.80
2018-05-17T01:15:32.728Z,80.80
2018-05-17T01:18:00.361Z,80.80
2018-05-17T01:20:27.966Z,81.00
2018-05-17T01:22:55.486Z,80.50
2018-05-17T01:25:23.363Z,80.50
2018-05-17T01:27:50.873Z,81.00
2018-05-17T01:30:19.152Z,80.80
2018-05-17T01:38:32.929Z,80.50
2018-05-17T01:41:00.480Z,80.50
2018-05-17T01:43:27.999Z,80.40
2018-05-17T01:45:55.607Z,80.70
2018-05-17T01:54:22.589Z,80.50
2018-05-17T01:56:50.964Z,80.30
2018-05-17T01:59:18.469Z,80.20
2018-05-17T02:01:46.046Z,80.30
2018-05-17T02:04:13.570Z,80.30
2018-05-17T02:06:41.174Z,80.60
2018-05-17T02:09:08.727Z,80.40
2018-05-17T02:11:36.460Z,80.50
2018-05-17T02:31:08.885Z,80.40
2018-05-17T02:33:36.423Z,80.60
2018-05-17T02:36:05.376Z,81.00
2018-05-17T02:38:38.735Z,81.50
2018-05-17T02:41:06.280Z,81.40
2018-05-17T03:00:38.641Z,81.40
2018-05-17T03:03:06.900Z,81.20
2018-05-17T03:05:35.978Z,81.40
2018-05-17T03:08:03.478Z,81.20
2018-05-17T03:10:31.158Z,81.70
2018-05-17T03:12:58.734Z,81.40
2018-05-17T03:15:26.580Z,81.40
2018-05-17T03:35:05.436Z,81.20
2018-05-17T03:37:33.258Z,81.20
2018-05-17T03:40:02.575Z,81.50
2018-05-17T03:42:30.060Z,81.30
2018-05-17T03:44:57.782Z,81.50
2018-05-17T06:48:34.603Z,77.60
2018-05-17T07:31:01.513Z,76.30
2018-05-17T07:54:14.794Z,75.80
2018-05-17T10:53:48.672Z,66.20
2018-05-17T11:19:23.664Z,64.80
2018-05-17T12:20:07.485Z,61.80
2018-05-17T12:26:28.666Z,60.90
2018-05-17T13:44:53.015Z,56.30
2018-05-17T13:47:20.766Z,57.10
2018-05-17T13:50:09.276Z,57.50
2018-05-17T13:52:49.352Z,57.10
2018-05-17T14:12:37.937Z,56.50
2018-05-17T14:15:27.869Z,56.80
2018-05-17T14:20:49.064Z,55.80
2018-05-17T14:23:17.433Z,56.50
2018-05-17T14:51:15.384Z,55.30
2018-05-17T14:53:42.972Z,55.70
2018-05-17T15:10:36.561Z,54.20
2018-05-17T15:13:06.500Z,53.80
2018-05-17T15:15:40.638Z,54.10
2018-05-17T15:20:45.815Z,52.90
2018-05-17T15:23:13.417Z,53.30
2018-05-17T15:25:41.069Z,53.80
2018-05-17T15:28:09.178Z,54.00
2018-05-17T15:30:50.384Z,53.60
2018-05-17T15:33:25.352Z,53.60
2018-05-17T15:53:22.410Z,52.70
2018-05-17T16:32:20.599Z,48.90
2018-05-17T16:43:47.208Z,48.10
2018-05-17T16:46:38.762Z,48.00
2018-05-17T16:49:34.508Z,48.90
2018-05-17T16:52:03.034Z,48.80
2018-05-17T16:54:32.410Z,49.30
2018-05-17T16:57:16.837Z,49.50
2018-05-17T16:59:44.420Z,49.50
2018-05-17T17:38:45.378Z,52.10
2018-05-17T21:11:35.996Z,61.20
2018-05-17T21:14:07.517Z,60.90
2018-05-17T21:16:39.762Z,61.40
2018-05-17T21:36:29.918Z,62.20
2018-05-17T21:39:06.143Z,61.90
2018-05-17T21:41:40.554Z,62.30
2018-05-17T21:46:57.991Z,62.40
